METAR AND TAF INFORMATION
METAR FOR KSNA
KSNA 130753Z AUTO 12004KT 10SM OVC037 16/09 A3002 RMK AO2 SLP167 T01560089 401670133
KSNA 130653Z AUTO 15006KT 10SM OVC036 16/09 A3002 RMK AO2 SLP167 T01560089
KSNA 130553Z 15006KT 10SM FEW013 BKN039 16/08 A3001 RMK AO2 SLP163 LAST T01610078 10167 20156 51012
KSNA 130557Z 1306/1406 17008KT P6SM SCT020 BKN035
FM131400 15013G20KT P6SM SCT020 BKN035
FM132200 21014G23KT 6SM -RA OVC025
FM140300 24006KT P6SM SCT025 BKN035

 AIRPORT MAP

 RUNWAY INFORMATION
Runway 01L Runway length 5700 ft Runway width 150 ft
Runway elevation 54 ft Runway displaced threshold 0 ft Runway heading 28
Runway 19R Runway length 5700 ft Runway width 150 ft
Runway elevation 42 ft Runway displaced threshold 0 ft Runway heading 208
Runway 01R Runway length 2887 ft Runway width 75 ft
Runway elevation 52 ft Runway displaced threshold 0 ft Runway heading 28
Runway 19L Runway length 2887 ft Runway width 75 ft
Runway elevation 40 ft Runway displaced threshold 0 ft Runway heading 208

 AIRPORT FREQUENCIES
Type APP Name SOCAL APP Frequency 121.3 MHZ
Type APP Name SOCAL APP Frequency 38.02 MHZ
Type ATIS Name ATIS Frequency 126 MHZ
Type CLD Name CLNC DEL Frequency 118 MHZ
Type CTAF Name CTAF Frequency 126.8 MHZ
Type DEP Name SOCAL DEP Frequency 128.1 MHZ
Type GND Name GND Frequency 120.8 MHZ
Type RDO Name RIVERSIDE Frequency 122.45 MHZ
Type TWR Name TWR Frequency 119.9 MHZ
Type UNIC Name UNICOM Frequency 122.95 MHZ

 AIRPORT NEAR NAVIGATION AIDS
Type NDB Name Maagg Frequency 337 KHZ

-